createdAt,value
2023-05-14T00:00:05.390Z,58.06
2023-05-14T00:02:55.066Z,58.36
2023-05-14T00:05:23.427Z,58.59
2023-05-14T00:07:51.442Z,58.78
2023-05-14T00:10:22.174Z,58.99
2023-05-14T00:12:52.078Z,59.00
2023-05-14T00:15:20.202Z,59.16
2023-05-14T00:17:48.359Z,59.37
2023-05-14T00:20:16.446Z,59.62
2023-05-14T00:22:44.635Z,59.53
2023-05-14T00:25:12.623Z,59.66
2023-05-14T00:27:40.903Z,60.09
2023-05-14T00:30:09.567Z,60.28
2023-05-14T00:32:37.767Z,60.28
2023-05-14T00:35:06.454Z,60.36
2023-05-14T00:37:34.427Z,60.45
2023-05-14T00:40:02.384Z,60.55
2023-05-14T00:42:30.349Z,60.74
2023-05-14T00:44:58.317Z,60.72
2023-05-14T00:47:27.288Z,60.94
2023-05-14T00:49:55.530Z,61.08
2023-05-14T00:52:23.654Z,61.18
2023-05-14T00:54:52.298Z,61.54
2023-05-14T00:57:22.111Z,61.67
2023-05-14T00:59:50.890Z,61.83
2023-05-14T01:02:19.140Z,61.87
2023-05-14T01:04:47.216Z,61.95
2023-05-14T01:07:33.276Z,61.99
2023-05-14T01:10:11.976Z,62.14
2023-05-14T01:12:48.889Z,62.34
2023-05-14T01:15:25.751Z,62.47
2023-05-14T01:18:00.312Z,62.45
2023-05-14T01:20:28.541Z,62.50
2023-05-14T01:22:56.511Z,62.56
2023-05-14T01:25:24.744Z,62.74
2023-05-14T01:27:58.405Z,62.94
2023-05-14T01:30:50.838Z,63.01
2023-05-14T01:33:21.144Z,62.94
2023-05-14T01:35:50.962Z,62.96
2023-05-14T01:38:20.814Z,62.99
2023-05-14T01:40:50.797Z,63.21
2023-05-14T01:43:19.807Z,63.24
2023-05-14T01:45:47.958Z,63.30
2023-05-14T01:48:16.235Z,63.48
2023-05-14T01:50:44.197Z,63.49
2023-05-14T01:53:12.279Z,63.69
2023-05-14T01:55:40.328Z,63.76
2023-05-14T01:58:08.609Z,63.62
2023-05-14T02:00:36.729Z,63.63
2023-05-14T02:03:04.664Z,63.81
2023-05-14T02:05:32.719Z,63.97
2023-05-14T02:08:00.694Z,64.09
2023-05-14T02:10:28.659Z,64.23
2023-05-14T02:12:56.646Z,64.40
2023-05-14T02:15:24.901Z,64.59
2023-05-14T02:17:53.134Z,64.79
2023-05-14T02:20:21.336Z,64.49
2023-05-14T02:22:49.531Z,64.64
2023-05-14T02:25:17.695Z,64.71
2023-05-14T02:27:45.979Z,64.81
2023-05-14T02:30:14.345Z,64.92
2023-05-14T02:32:42.535Z,64.87
2023-05-14T02:35:10.714Z,64.98
2023-05-14T02:37:38.697Z,65.15
2023-05-14T02:40:07.397Z,65.10
2023-05-14T02:42:35.768Z,65.17
2023-05-14T02:45:04.305Z,65.10
2023-05-14T02:47:32.336Z,65.32
2023-05-14T02:50:00.462Z,65.42
2023-05-14T02:52:28.541Z,65.32
2023-05-14T02:54:56.688Z,65.23
2023-05-14T02:57:24.662Z,65.26
2023-05-14T02:59:52.801Z,65.28
2023-05-14T03:02:21.492Z,65.49
2023-05-14T03:04:50.715Z,65.51
2023-05-14T03:07:18.782Z,65.56
2023-05-14T03:09:46.862Z,65.70
2023-05-14T03:12:14.929Z,65.71
2023-05-14T03:14:43.010Z,65.84
2023-05-14T03:17:11.019Z,66.00
2023-05-14T03:19:39.034Z,66.37
2023-05-14T03:22:08.809Z,66.18
2023-05-14T03:24:39.241Z,66.23
2023-05-14T03:27:07.343Z,66.03
2023-05-14T03:29:35.723Z,66.05
2023-05-14T03:32:04.049Z,66.22
2023-05-14T03:34:32.304Z,66.40
2023-05-14T03:37:00.459Z,66.48
2023-05-14T03:39:28.398Z,66.60
2023-05-14T03:41:58.959Z,66.45
2023-05-14T03:44:27.292Z,66.56
2023-05-14T03:46:55.996Z,66.50
2023-05-14T03:49:24.072Z,66.34
2023-05-14T03:51:52.048Z,66.37
2023-05-14T03:54:20.108Z,66.45
2023-05-14T03:56:48.082Z,66.49
2023-05-14T03:59:16.045Z,66.51
2023-05-14T04:01:44.731Z,66.70
2023-05-14T04:04:12.853Z,66.44
2023-05-14T04:06:41.075Z,66.21
2023-05-14T04:09:11.011Z,65.67
2023-05-14T04:11:39.067Z,64.71
2023-05-14T04:14:07.179Z,62.86
2023-05-14T04:16:35.228Z,60.21
2023-05-14T04:19:05.013Z,57.37
2023-05-14T04:21:33.107Z,54.83
2023-05-14T04:24:01.110Z,52.27
2023-05-14T04:26:29.126Z,49.68
2023-05-14T04:28:57.089Z,47.86
2023-05-14T04:31:25.082Z,45.49
2023-05-14T04:33:53.127Z,42.91
2023-05-14T04:36:21.108Z,41.84
2023-05-14T04:38:49.066Z,40.73
2023-05-14T04:41:17.129Z,39.28
2023-05-14T04:43:45.021Z,38.78
2023-05-14T04:46:14.060Z,37.13
2023-05-14T04:48:42.261Z,36.35
2023-05-14T04:51:10.229Z,36.06
2023-05-14T04:53:38.200Z,34.71
2023-05-14T04:56:06.780Z,34.39
2023-05-14T04:58:35.266Z,33.41
2023-05-14T05:01:06.031Z,32.94
2023-05-14T05:03:34.120Z,32.33
2023-05-14T05:06:02.242Z,32.12
2023-05-14T05:08:31.027Z,31.61
2023-05-14T05:10:59.048Z,31.34
2023-05-14T05:13:26.981Z,31.02
2023-05-14T05:15:54.999Z,30.43
2023-05-14T05:18:22.987Z,29.79
2023-05-14T05:20:50.940Z,29.59
2023-05-14T05:23:18.953Z,28.70
2023-05-14T05:25:47.027Z,29.16
2023-05-14T05:28:15.121Z,28.69
2023-05-14T05:30:45.181Z,28.37
2023-05-14T05:33:14.364Z,28.14
2023-05-14T05:35:43.488Z,26.91
2023-05-14T05:38:11.557Z,26.07
2023-05-14T05:40:39.626Z,24.79
2023-05-14T05:43:07.594Z,25.25
2023-05-14T05:45:35.531Z,24.86
2023-05-14T05:48:03.753Z,24.75
2023-05-14T05:50:32.330Z,24.80
2023-05-14T05:53:00.504Z,25.26
2023-05-14T05:55:29.301Z,25.16
2023-05-14T05:57:57.330Z,25.87
2023-05-14T06:00:25.975Z,25.42
2023-05-14T06:02:54.351Z,24.31
2023-05-14T06:05:22.396Z,24.09
2023-05-14T06:07:50.658Z,23.66
2023-05-14T06:10:19.461Z,23.70
2023-05-14T06:12:47.416Z,24.12
2023-05-14T06:15:15.654Z,23.72
2023-05-14T06:17:43.653Z,23.91
2023-05-14T06:20:12.464Z,25.00
2023-05-14T06:22:40.619Z,25.48
2023-05-14T06:25:09.349Z,25.25
2023-05-14T06:27:37.371Z,25.21
2023-05-14T06:30:07.170Z,24.98
2023-05-14T06:32:35.286Z,25.20
2023-05-14T06:35:03.421Z,25.23
2023-05-14T06:37:31.493Z,25.70
2023-05-14T06:40:01.600Z,26.60
2023-05-14T06:42:29.631Z,26.86
2023-05-14T06:44:59.391Z,27.38
2023-05-14T06:47:27.381Z,26.92
2023-05-14T06:49:56.757Z,27.42
2023-05-14T06:52:25.818Z,27.83
2023-05-14T06:54:53.823Z,27.32
2023-05-14T06:57:22.264Z,26.80
2023-05-14T06:59:50.388Z,26.84
2023-05-14T07:02:18.443Z,26.39
2023-05-14T07:04:46.704Z,26.40
2023-05-14T07:07:17.960Z,26.38
2023-05-14T07:09:46.089Z,26.13
2023-05-14T07:12:14.109Z,26.78
2023-05-14T07:14:42.131Z,26.71
2023-05-14T07:17:10.102Z,26.29
2023-05-14T07:19:38.210Z,26.22
2023-05-14T07:22:06.389Z,26.00
2023-05-14T07:24:34.470Z,26.49
2023-05-14T07:27:02.558Z,26.49
2023-05-14T07:29:30.951Z,27.09
2023-05-14T07:31:58.976Z,27.08
2023-05-14T07:34:26.950Z,26.86
2023-05-14T07:36:55.233Z,27.47
2023-05-14T07:39:23.184Z,27.65
2023-05-14T07:41:51.409Z,27.73
2023-05-14T07:44:19.329Z,27.56
2023-05-14T07:46:47.911Z,27.12
2023-05-14T07:49:15.978Z,26.70
2023-05-14T07:51:43.958Z,26.34
2023-05-14T07:54:12.022Z,26.53
2023-05-14T07:56:40.197Z,26.11
2023-05-14T07:59:08.379Z,26.72
2023-05-14T08:01:39.195Z,27.27
2023-05-14T08:04:08.203Z,27.71
2023-05-14T08:06:37.487Z,27.96
2023-05-14T08:09:05.556Z,27.38
2023-05-14T08:11:33.550Z,27.59
2023-05-14T08:14:01.666Z,28.17
2023-05-14T08:16:29.714Z,28.66
2023-05-14T08:18:57.768Z,29.09
2023-05-14T08:21:26.011Z,29.14
2023-05-14T08:23:54.088Z,29.16
2023-05-14T08:26:22.159Z,28.96
2023-05-14T08:28:50.129Z,29.14
2023-05-14T08:31:18.142Z,29.16
2023-05-14T08:33:46.285Z,29.59
2023-05-14T08:36:14.299Z,29.25
2023-05-14T08:38:42.719Z,29.49
2023-05-14T08:41:11.852Z,29.58
2023-05-14T08:43:53.193Z,29.43
2023-05-14T08:46:24.252Z,29.26
2023-05-14T08:49:00.519Z,29.06
2023-05-14T08:51:28.614Z,29.09
2023-05-14T08:53:59.303Z,28.31
2023-05-14T08:56:27.613Z,27.94
2023-05-14T08:58:55.714Z,27.35
2023-05-14T09:01:24.165Z,25.91
2023-05-14T09:03:54.091Z,25.37
2023-05-14T09:06:22.989Z,24.12
2023-05-14T09:08:50.996Z,24.89
2023-05-14T09:11:19.069Z,24.22
2023-05-14T09:13:47.035Z,23.92
2023-05-14T09:16:16.625Z,22.60
2023-05-14T09:18:45.835Z,22.48
2023-05-14T09:21:18.300Z,23.21
2023-05-14T09:23:47.876Z,23.77
2023-05-14T09:26:18.825Z,23.21
2023-05-14T09:28:47.128Z,22.87
2023-05-14T09:31:15.336Z,22.61
2023-05-14T09:33:44.090Z,22.69
2023-05-14T09:36:12.024Z,22.76
2023-05-14T09:38:40.023Z,22.42
2023-05-14T09:41:08.092Z,21.07
2023-05-14T09:43:36.269Z,21.38
2023-05-14T09:46:04.548Z,21.43
2023-05-14T09:48:32.551Z,21.51
2023-05-14T09:51:01.414Z,21.77
2023-05-14T09:53:30.786Z,21.82
2023-05-14T09:55:58.886Z,22.25
2023-05-14T09:58:26.950Z,21.93
2023-05-14T10:00:57.469Z,22.34
2023-05-14T10:03:29.558Z,22.47
2023-05-14T10:06:01.431Z,22.23
2023-05-14T10:08:34.569Z,21.55
2023-05-14T10:11:08.646Z,21.79
2023-05-14T10:13:40.050Z,21.79
2023-05-14T10:16:28.705Z,21.66
2023-05-14T10:19:05.231Z,21.91
2023-05-14T10:21:36.832Z,21.01
2023-05-14T10:24:06.288Z,20.56
2023-05-14T10:26:39.588Z,21.18
2023-05-14T10:29:10.318Z,21.76
2023-05-14T10:31:48.341Z,21.93
2023-05-14T10:34:38.051Z,21.74
2023-05-14T10:37:21.154Z,21.41
2023-05-14T10:39:58.490Z,21.51
2023-05-14T10:42:29.045Z,21.74
2023-05-14T10:45:01.752Z,22.20
2023-05-14T10:47:31.302Z,22.33
2023-05-14T10:50:02.234Z,22.62
2023-05-14T10:52:30.259Z,22.95
2023-05-14T10:55:02.904Z,22.93
2023-05-14T10:57:32.506Z,23.13
2023-05-14T11:00:01.856Z,22.62
2023-05-14T11:02:36.978Z,22.28
2023-05-14T11:05:08.731Z,21.84
2023-05-14T11:07:39.398Z,21.86
2023-05-14T11:10:08.438Z,22.21
2023-05-14T11:12:38.702Z,22.43
2023-05-14T11:15:11.881Z,22.46
2023-05-14T11:17:42.402Z,22.79
2023-05-14T11:20:11.554Z,22.23
2023-05-14T11:22:41.411Z,21.82
2023-05-14T11:25:10.600Z,21.50
2023-05-14T11:27:39.558Z,21.75
2023-05-14T11:30:15.698Z,21.76
2023-05-14T11:32:49.136Z,21.77
2023-05-14T11:35:18.514Z,22.36
2023-05-14T11:37:52.700Z,22.03
2023-05-14T11:40:20.835Z,22.28
2023-05-14T11:42:52.640Z,22.55
2023-05-14T11:45:27.571Z,22.41
2023-05-14T11:47:56.169Z,22.39
2023-05-14T11:50:24.483Z,22.14
2023-05-14T11:52:56.842Z,22.43
2023-05-14T11:55:25.129Z,22.49
2023-05-14T11:57:53.197Z,22.81
2023-05-14T12:00:24.354Z,22.86
2023-05-14T12:02:52.860Z,22.88
2023-05-14T12:05:21.097Z,23.05
2023-05-14T12:07:49.063Z,23.07
2023-05-14T12:10:17.137Z,23.23
2023-05-14T12:12:47.458Z,23.06
2023-05-14T12:15:20.635Z,23.20
2023-05-14T12:17:52.152Z,23.51
2023-05-14T12:20:20.630Z,23.82
2023-05-14T12:22:48.853Z,24.03
2023-05-14T12:25:17.227Z,23.33
2023-05-14T12:27:45.710Z,23.49
2023-05-14T12:32:46.186Z,23.49
2023-05-14T12:35:14.426Z,23.29
2023-05-14T12:37:43.279Z,23.24
2023-05-14T12:40:12.241Z,23.62
2023-05-14T12:42:40.399Z,23.87
2023-05-14T12:45:09.046Z,23.73
2023-05-14T12:47:37.481Z,23.21
2023-05-14T12:50:06.641Z,23.61
2023-05-14T12:52:39.295Z,23.96
2023-05-14T12:55:09.521Z,24.66
2023-05-14T12:57:39.464Z,25.32
2023-05-14T13:00:13.875Z,25.37
2023-05-14T13:02:43.700Z,25.65
2023-05-14T13:05:12.792Z,26.51
2023-05-14T13:07:40.949Z,27.44
2023-05-14T13:10:10.046Z,27.53
2023-05-14T13:12:38.882Z,27.68
2023-05-14T13:15:07.690Z,28.61
2023-05-14T13:17:36.657Z,29.62
2023-05-14T13:20:05.341Z,29.51
2023-05-14T13:22:33.880Z,32.32
2023-05-14T13:25:01.901Z,33.16
2023-05-14T13:27:30.600Z,32.36
2023-05-14T13:29:58.700Z,31.77
2023-05-14T13:32:26.638Z,31.18
2023-05-14T13:34:54.643Z,31.80
2023-05-14T13:37:23.136Z,31.47
2023-05-14T13:39:51.653Z,30.83
2023-05-14T13:42:19.772Z,30.35
2023-05-14T13:44:47.852Z,30.00
2023-05-14T13:47:15.911Z,30.97
2023-05-14T13:49:43.983Z,30.95
2023-05-14T13:52:11.953Z,30.62
2023-05-14T13:54:39.888Z,30.00
2023-05-14T13:57:07.890Z,30.39
2023-05-14T13:59:36.162Z,30.68
2023-05-14T14:02:04.963Z,29.87
2023-05-14T14:04:33.437Z,29.63
2023-05-14T14:07:01.511Z,29.34
2023-05-14T14:09:29.496Z,29.61
2023-05-14T14:11:57.865Z,28.94
2023-05-14T14:14:25.918Z,27.80
2023-05-14T14:16:54.015Z,30.25
2023-05-14T14:19:21.960Z,30.95
2023-05-14T14:24:18.816Z,30.72
2023-05-14T14:26:46.740Z,30.95
2023-05-14T14:29:14.749Z,30.38
2023-05-14T14:31:43.724Z,29.76
2023-05-14T14:34:11.926Z,29.27
2023-05-14T14:36:39.984Z,29.30
2023-05-14T14:39:07.896Z,29.64
2023-05-14T14:41:35.929Z,30.37
2023-05-14T14:44:04.029Z,30.58
2023-05-14T14:46:32.737Z,30.89
2023-05-14T14:49:00.834Z,30.74
2023-05-14T14:51:30.373Z,30.54
2023-05-14T14:53:58.425Z,30.35
2023-05-14T14:56:27.363Z,30.64
2023-05-14T14:58:55.335Z,30.89
2023-05-14T15:01:23.335Z,30.67
2023-05-14T15:03:51.348Z,30.83
2023-05-14T15:06:19.400Z,30.49
2023-05-14T15:08:47.460Z,30.78
2023-05-14T15:11:15.440Z,31.02
2023-05-14T15:13:43.511Z,30.92
2023-05-14T15:16:12.617Z,31.33
2023-05-14T15:18:40.806Z,31.82
2023-05-14T15:21:08.813Z,32.23
2023-05-14T15:23:36.911Z,31.93
2023-05-14T15:26:05.055Z,32.06
2023-05-14T15:28:33.559Z,31.71
2023-05-14T15:31:02.759Z,32.24
2023-05-14T15:33:30.834Z,32.13
2023-05-14T15:35:59.003Z,32.44
2023-05-14T15:38:27.074Z,31.67
2023-05-14T15:40:55.141Z,31.20
2023-05-14T15:43:23.106Z,31.85
2023-05-14T15:45:51.047Z,31.17
2023-05-14T15:48:19.050Z,31.11
2023-05-14T15:50:49.681Z,30.76
2023-05-14T15:53:18.060Z,30.70
2023-05-14T15:55:48.375Z,31.24
2023-05-14T15:58:16.347Z,31.07
2023-05-14T16:00:44.412Z,31.28
2023-05-14T16:03:12.532Z,31.75
2023-05-14T16:05:42.848Z,31.19
2023-05-14T16:08:11.301Z,31.27
2023-05-14T16:10:39.262Z,31.30
2023-05-14T16:13:07.426Z,31.26
2023-05-14T16:15:35.395Z,31.38
2023-05-14T16:18:03.525Z,27.68
2023-05-14T16:20:31.539Z,26.68
2023-05-14T16:22:59.435Z,28.40
2023-05-14T16:25:27.483Z,27.29
2023-05-14T16:27:55.541Z,26.60
2023-05-14T16:30:23.935Z,26.84
2023-05-14T16:32:52.335Z,27.20
2023-05-14T16:35:20.700Z,27.34
2023-05-14T16:37:48.753Z,27.62
2023-05-14T16:40:16.792Z,27.14
2023-05-14T16:42:46.054Z,27.83
2023-05-14T16:45:15.922Z,28.01
2023-05-14T16:47:43.925Z,29.91
2023-05-14T16:50:12.574Z,33.80
2023-05-14T16:52:40.756Z,36.16
2023-05-14T16:55:09.447Z,37.65
2023-05-14T16:57:37.550Z,38.39
2023-05-14T17:00:06.700Z,38.96
2023-05-14T17:02:34.783Z,39.77
2023-05-14T17:05:04.152Z,39.87
2023-05-14T17:07:32.148Z,39.29
2023-05-14T17:10:00.970Z,38.83
2023-05-14T17:12:29.192Z,38.48
2023-05-14T17:14:57.130Z,38.33
2023-05-14T17:17:25.198Z,38.02
2023-05-14T17:19:53.206Z,37.34
2023-05-14T17:22:21.271Z,36.85
2023-05-14T17:24:49.338Z,36.40
2023-05-14T17:27:17.268Z,35.97
2023-05-14T17:29:45.198Z,35.59
2023-05-14T17:32:13.530Z,35.04
2023-05-14T17:34:41.727Z,34.77
2023-05-14T17:37:09.802Z,34.36
2023-05-14T17:39:37.829Z,34.42
2023-05-14T17:42:07.119Z,34.64
2023-05-14T17:44:36.481Z,34.45
2023-05-14T17:47:04.946Z,34.70
2023-05-14T17:49:32.973Z,34.71
2023-05-14T17:52:01.449Z,34.82
2023-05-14T17:54:29.577Z,34.76
2023-05-14T17:56:57.643Z,34.99
2023-05-14T17:59:25.713Z,35.15
2023-05-14T18:01:53.748Z,35.30
2023-05-14T18:04:21.963Z,35.46
2023-05-14T18:06:49.959Z,35.81
2023-05-14T18:09:18.009Z,36.13
2023-05-14T18:11:45.977Z,36.38
2023-05-14T18:14:14.224Z,36.71
2023-05-14T18:16:42.913Z,36.81
2023-05-14T18:19:11.684Z,37.17
2023-05-14T18:21:39.895Z,37.31
2023-05-14T18:24:08.661Z,37.79
2023-05-14T18:26:36.752Z,37.98
2023-05-14T18:29:05.033Z,38.07
2023-05-14T18:31:33.097Z,38.29
2023-05-14T18:34:01.268Z,38.37
2023-05-14T18:36:29.317Z,38.38
2023-05-14T18:38:57.408Z,38.18
2023-05-14T18:41:25.430Z,38.02
2023-05-14T18:43:53.452Z,37.90
2023-05-14T18:46:21.607Z,37.84
2023-05-14T18:48:50.715Z,37.70
2023-05-14T18:51:18.787Z,37.65
2023-05-14T18:53:46.716Z,37.37
2023-05-14T18:56:14.756Z,37.29
2023-05-14T18:58:42.796Z,36.94
2023-05-14T19:01:10.919Z,36.60
2023-05-14T19:03:40.328Z,36.45
2023-05-14T19:06:08.546Z,36.26
2023-05-14T19:08:36.613Z,35.92
2023-05-14T19:11:04.705Z,36.00
2023-05-14T19:13:32.750Z,35.94
2023-05-14T19:16:00.924Z,35.62
2023-05-14T19:18:28.991Z,35.55
2023-05-14T19:20:57.325Z,35.48
2023-05-14T19:23:25.548Z,35.39
2023-05-14T19:25:53.613Z,35.51
2023-05-14T19:28:21.689Z,35.43
2023-05-14T19:30:51.321Z,35.19
2023-05-14T19:33:19.772Z,35.23
2023-05-14T19:35:47.837Z,35.33
2023-05-14T19:38:16.285Z,35.31
2023-05-14T19:40:45.124Z,35.32
2023-05-14T19:43:13.697Z,35.31
2023-05-14T19:45:42.878Z,35.61
2023-05-14T19:48:12.642Z,35.95
2023-05-14T19:50:41.682Z,35.83
2023-05-14T19:53:09.756Z,35.49
2023-05-14T19:55:38.002Z,35.22
2023-05-14T19:58:06.321Z,35.00
2023-05-14T20:00:34.501Z,35.04
2023-05-14T20:03:03.525Z,34.96
2023-05-14T20:05:34.513Z,34.88
2023-05-14T20:08:03.938Z,34.97
2023-05-14T20:10:32.192Z,35.10
2023-05-14T20:13:00.198Z,35.08
2023-05-14T20:15:28.331Z,35.14
2023-05-14T20:17:56.478Z,35.15
2023-05-14T20:20:24.806Z,35.14
2023-05-14T20:22:53.758Z,35.06
2023-05-14T20:25:22.039Z,35.25
2023-05-14T20:27:50.420Z,35.12
2023-05-14T20:30:19.005Z,34.92
2023-05-14T20:32:47.017Z,34.80
2023-05-14T20:35:15.249Z,34.75
2023-05-14T20:37:43.326Z,34.67
2023-05-14T20:40:14.684Z,34.60
2023-05-14T20:42:42.844Z,34.46
2023-05-14T20:45:11.221Z,34.42
2023-05-14T20:47:40.413Z,34.28
2023-05-14T20:50:08.955Z,34.39
2023-05-14T20:52:37.075Z,34.27
2023-05-14T20:55:07.689Z,34.42
2023-05-14T20:57:35.878Z,34.37
2023-05-14T21:00:08.231Z,34.25
2023-05-14T21:02:36.584Z,34.34
2023-05-14T21:05:05.388Z,34.44
2023-05-14T21:07:33.692Z,34.53
2023-05-14T21:10:02.059Z,34.75
2023-05-14T21:12:30.038Z,34.86
2023-05-14T21:14:58.009Z,35.01
2023-05-14T21:17:26.112Z,35.19
2023-05-14T21:19:54.250Z,35.25
2023-05-14T21:22:22.710Z,35.39
2023-05-14T21:24:51.526Z,35.51
2023-05-14T21:27:19.549Z,35.59
2023-05-14T21:29:47.754Z,35.59
2023-05-14T21:32:15.919Z,35.56
2023-05-14T21:34:43.902Z,35.62
2023-05-14T21:37:12.120Z,35.64
2023-05-14T21:39:40.054Z,35.56
2023-05-14T21:42:08.586Z,35.68
2023-05-14T21:44:36.686Z,35.62
2023-05-14T21:47:05.750Z,35.55
2023-05-14T21:49:33.858Z,35.62
2023-05-14T21:52:02.022Z,35.58
2023-05-14T21:54:30.209Z,35.64
2023-05-14T21:56:58.262Z,35.69
2023-05-14T21:59:26.147Z,35.71
2023-05-14T22:04:24.931Z,35.66
2023-05-14T22:06:53.002Z,35.49
2023-05-14T22:09:20.969Z,35.40
2023-05-14T22:11:48.943Z,35.30
2023-05-14T22:14:17.428Z,35.16
2023-05-14T22:16:45.641Z,35.16
2023-05-14T22:19:15.979Z,35.14
2023-05-14T22:21:44.136Z,35.15
2023-05-14T22:24:12.262Z,35.13
2023-05-14T22:26:40.661Z,35.12
2023-05-14T22:29:08.648Z,35.02
2023-05-14T22:31:36.835Z,35.08
2023-05-14T22:34:04.847Z,35.23
2023-05-14T22:36:32.861Z,35.35
2023-05-14T22:39:01.104Z,35.51
2023-05-14T22:41:29.480Z,35.59
2023-05-14T22:43:57.451Z,35.76
2023-05-14T22:46:25.659Z,35.97
2023-05-14T22:48:53.792Z,36.09
2023-05-14T22:51:21.713Z,36.29
2023-05-14T22:53:49.727Z,36.55
2023-05-14T22:56:17.892Z,36.54
2023-05-14T22:58:45.961Z,36.69
2023-05-14T23:01:14.001Z,36.73
2023-05-14T23:03:42.190Z,36.88
2023-05-14T23:06:10.481Z,36.94
2023-05-14T23:08:38.424Z,36.98
2023-05-14T23:11:06.518Z,37.11
2023-05-14T23:13:34.594Z,37.24
2023-05-14T23:16:02.922Z,37.26
2023-05-14T23:18:31.165Z,37.27
2023-05-14T23:20:59.308Z,37.36
2023-05-14T23:23:27.277Z,37.35
2023-05-14T23:25:56.164Z,37.38
2023-05-14T23:28:24.240Z,37.41
2023-05-14T23:30:52.174Z,37.45
2023-05-14T23:33:20.115Z,37.55
2023-05-14T23:35:48.532Z,37.69
2023-05-14T23:38:16.828Z,37.69
2023-05-14T23:40:44.903Z,37.73
2023-05-14T23:43:13.074Z,37.85
2023-05-14T23:45:41.059Z,37.81
2023-05-14T23:48:09.333Z,38.04
2023-05-14T23:50:38.302Z,38.01
2023-05-14T23:53:06.377Z,38.08
2023-05-14T23:55:34.338Z,38.12
2023-05-14T23:58:02.310Z,38.24
